sensor_id;sensor_type;location;lat;lon;timestamp;pressure;altitude;pressure_sealevel;temperature;humidity
71344;BME280;59146;43.850;25.948;2023-03-23T00:02:26;101268.56;;;9.12;96.33
71344;BME280;59146;43.850;25.948;2023-03-23T00:04:52;101279.06;;;9.10;97.51
71344;BME280;59146;43.850;25.948;2023-03-23T00:07:22;101227.25;;;8.82;98.41
71344;BME280;59146;43.850;25.948;2023-03-23T00:09:50;101266.94;;;9.09;97.17
71344;BME280;59146;43.850;25.948;2023-03-23T00:12:19;101282.25;;;8.97;97.33
71344;BME280;59146;43.850;25.948;2023-03-23T00:14:45;101155.03;;;8.24;97.83
71344;BME280;59146;43.850;25.948;2023-03-23T00:17:10;101222.56;;;8.70;98.26
71344;BME280;59146;43.850;25.948;2023-03-23T00:19:40;101243.38;;;8.92;97.52
71344;BME280;59146;43.850;25.948;2023-03-23T00:22:17;101205.56;;;8.62;96.72
71344;BME280;59146;43.850;25.948;2023-03-23T00:24:47;101172.81;;;8.56;97.37
71344;BME280;59146;43.850;25.948;2023-03-23T00:27:13;101218.63;;;9.02;97.07
71344;BME280;59146;43.850;25.948;2023-03-23T00:29:40;101201.75;;;8.70;96.23
71344;BME280;59146;43.850;25.948;2023-03-23T00:32:08;101245.19;;;8.90;96.68
71344;BME280;59146;43.850;25.948;2023-03-23T00:34:38;101241.06;;;8.85;99.55
71344;BME280;59146;43.850;25.948;2023-03-23T00:37:06;101220.28;;;8.63;100.00
71344;BME280;59146;43.850;25.948;2023-03-23T00:39:33;101259.69;;;8.75;100.00
71344;BME280;59146;43.850;25.948;2023-03-23T00:41:59;101192.81;;;8.34;100.00
71344;BME280;59146;43.850;25.948;2023-03-23T00:44:28;101247.69;;;8.71;100.00
71344;BME280;59146;43.850;25.948;2023-03-23T00:46:56;101229.78;;;8.64;100.00
71344;BME280;59146;43.850;25.948;2023-03-23T00:49:23;101240.03;;;8.68;100.00
71344;BME280;59146;43.850;25.948;2023-03-23T00:51:53;101253.56;;;8.76;100.00
71344;BME280;59146;43.850;25.948;2023-03-23T00:54:19;101231.16;;;8.72;100.00
71344;BME280;59146;43.850;25.948;2023-03-23T00:56:46;101181.69;;;8.52;100.00
71344;BME280;59146;43.850;25.948;2023-03-23T00:59:12;101255.38;;;8.96;100.00
71344;BME280;59146;43.850;25.948;2023-03-23T01:01:37;101226.09;;;9.10;100.00
71344;BME280;59146;43.850;25.948;2023-03-23T01:04:03;101246.84;;;9.13;99.93
71344;BME280;59146;43.850;25.948;2023-03-23T01:06:34;101222.59;;;9.11;100.00
71344;BME280;59146;43.850;25.948;2023-03-23T01:09:00;101247.59;;;9.35;100.00
71344;BME280;59146;43.850;25.948;2023-03-23T01:11:28;101175.41;;;9.17;98.17
71344;BME280;59146;43.850;25.948;2023-03-23T01:13:54;101233.31;;;9.43;95.67
71344;BME280;59146;43.850;25.948;2023-03-23T01:16:20;101194.19;;;9.05;97.20
71344;BME280;59146;43.850;25.948;2023-03-23T01:18:46;101223.41;;;9.31;98.11
71344;BME280;59146;43.850;25.948;2023-03-23T01:21:15;101187.38;;;9.21;97.78
71344;BME280;59146;43.850;25.948;2023-03-23T01:23:41;101219.13;;;9.49;95.54
71344;BME280;59146;43.850;25.948;2023-03-23T01:26:14;101132.44;;;8.87;94.25
71344;BME280;59146;43.850;25.948;2023-03-23T01:28:40;101177.78;;;9.03;95.24
71344;BME280;59146;43.850;25.948;2023-03-23T01:31:11;101178.03;;;9.17;96.94
71344;BME280;59146;43.850;25.948;2023-03-23T01:33:38;101211.88;;;9.37;97.06
71344;BME280;59146;43.850;25.948;2023-03-23T01:36:06;101244.41;;;9.67;94.00
71344;BME280;59146;43.850;25.948;2023-03-23T01:38:35;101127.41;;;8.82;93.44
71344;BME280;59146;43.850;25.948;2023-03-23T01:41:01;101254.34;;;9.39;95.13
71344;BME280;59146;43.850;25.948;2023-03-23T01:43:27;101186.22;;;9.08;96.83
71344;BME280;59146;43.850;25.948;2023-03-23T01:45:53;101261.44;;;9.55;96.91
71344;BME280;59146;43.850;25.948;2023-03-23T01:48:31;101168.34;;;9.00;93.45
71344;BME280;59146;43.850;25.948;2023-03-23T01:51:01;101254.56;;;9.34;94.30
71344;BME280;59146;43.850;25.948;2023-03-23T01:53:31;101192.41;;;9.05;95.93
71344;BME280;59146;43.850;25.948;2023-03-23T01:55:59;101232.88;;;9.34;96.39
71344;BME280;59146;43.850;25.948;2023-03-23T01:58:28;101260.53;;;9.56;94.35
71344;BME280;59146;43.850;25.948;2023-03-23T02:00:57;101195.16;;;9.02;93.97
71344;BME280;59146;43.850;25.948;2023-03-23T02:03:24;101191.97;;;8.96;95.04
71344;BME280;59146;43.850;25.948;2023-03-23T02:05:50;101250.53;;;9.27;96.22
71344;BME280;59146;43.850;25.948;2023-03-23T02:08:17;101211.16;;;9.13;97.12
71344;BME280;59146;43.850;25.948;2023-03-23T02:10:43;101259.06;;;9.31;95.65
71344;BME280;59146;43.850;25.948;2023-03-23T02:13:11;101220.69;;;9.14;94.67
71344;BME280;59146;43.850;25.948;2023-03-23T02:15:52;101201.22;;;9.03;95.98
71344;BME280;59146;43.850;25.948;2023-03-23T02:19:29;101200.63;;;9.16;95.85
71344;BME280;59146;43.850;25.948;2023-03-23T02:27:26;101215.34;;;8.97;95.52
71344;BME280;59146;43.850;25.948;2023-03-23T02:35:31;101269.25;;;9.17;93.43
71344;BME280;59146;43.850;25.948;2023-03-23T02:38:08;101260.66;;;9.15;94.42
71344;BME280;59146;43.850;25.948;2023-03-23T02:40:39;101255.94;;;9.23;91.88
71344;BME280;59146;43.850;25.948;2023-03-23T02:43:09;101208.59;;;8.73;92.53
71344;BME280;59146;43.850;25.948;2023-03-23T02:45:37;101277.13;;;9.15;94.22
71344;BME280;59146;43.850;25.948;2023-03-23T02:48:05;101253.31;;;8.82;95.95
71344;BME280;59146;43.850;25.948;2023-03-23T02:50:33;101275.81;;;9.05;95.64
71344;BME280;59146;43.850;25.948;2023-03-23T02:53:01;101261.53;;;8.94;96.06
71344;BME280;59146;43.850;25.948;2023-03-23T02:55:29;101245.88;;;8.73;96.42
71344;BME280;59146;43.850;25.948;2023-03-23T02:57:56;101198.38;;;8.47;95.13
71344;BME280;59146;43.850;25.948;2023-03-23T03:00:22;101301.03;;;9.05;95.14
71344;BME280;59146;43.850;25.948;2023-03-23T03:02:52;101230.50;;;8.67;94.57
71344;BME280;59146;43.850;25.948;2023-03-23T03:05:36;101307.16;;;9.04;94.93
71344;BME280;59146;43.850;25.948;2023-03-23T03:08:22;101311.13;;;9.12;94.88
71344;BME280;59146;43.850;25.948;2023-03-23T03:13:50;101212.69;;;8.37;94.10
71344;BME280;59146;43.850;25.948;2023-03-23T03:19:09;101310.00;;;8.98;96.42
71344;BME280;59146;43.850;25.948;2023-03-23T03:21:42;101239.78;;;8.53;92.45
71344;BME280;59146;43.850;25.948;2023-03-23T03:24:10;101307.59;;;8.93;93.68
71344;BME280;59146;43.850;25.948;2023-03-23T03:26:39;101260.97;;;8.65;94.47
71344;BME280;59146;43.850;25.948;2023-03-23T03:29:06;101240.13;;;8.65;92.95
71344;BME280;59146;43.850;25.948;2023-03-23T03:31:36;101302.44;;;8.92;92.51
71344;BME280;59146;43.850;25.948;2023-03-23T03:34:03;101262.00;;;8.61;94.04
71344;BME280;59146;43.850;25.948;2023-03-23T03:36:32;101267.75;;;8.69;95.28
71344;BME280;59146;43.850;25.948;2023-03-23T03:39:05;101311.94;;;8.93;94.94
71344;BME280;59146;43.850;25.948;2023-03-23T03:41:33;101224.91;;;8.56;92.74
71344;BME280;59146;43.850;25.948;2023-03-23T03:43:58;101313.06;;;8.87;92.25
71344;BME280;59146;43.850;25.948;2023-03-23T03:46:24;101321.97;;;8.82;93.79
71344;BME280;59146;43.850;25.948;2023-03-23T03:48:52;101282.91;;;8.60;94.91
71344;BME280;59146;43.850;25.948;2023-03-23T03:51:18;101298.09;;;8.70;95.03
71344;BME280;59146;43.850;25.948;2023-03-23T03:53:43;101320.44;;;8.76;94.24
71344;BME280;59146;43.850;25.948;2023-03-23T03:56:08;101262.63;;;8.46;93.80
71344;BME280;59146;43.850;25.948;2023-03-23T03:58:34;101256.75;;;8.41;94.81
71344;BME280;59146;43.850;25.948;2023-03-23T04:01:02;101250.03;;;8.36;95.37
71344;BME280;59146;43.850;25.948;2023-03-23T04:03:28;101278.38;;;8.65;95.04
71344;BME280;59146;43.850;25.948;2023-03-23T04:05:54;101292.22;;;8.65;94.55
71344;BME280;59146;43.850;25.948;2023-03-23T04:08:24;101279.41;;;8.39;95.33
71344;BME280;59146;43.850;25.948;2023-03-23T04:10:51;101260.50;;;8.34;95.47
71344;BME280;59146;43.850;25.948;2023-03-23T04:13:17;101318.50;;;8.59;95.68
71344;BME280;59146;43.850;25.948;2023-03-23T04:15:46;101281.31;;;8.34;96.06
71344;BME280;59146;43.850;25.948;2023-03-23T04:18:12;101277.34;;;8.24;96.78
71344;BME280;59146;43.850;25.948;2023-03-23T04:20:41;101263.63;;;8.21;97.43
71344;BME280;59146;43.850;25.948;2023-03-23T04:23:08;101260.50;;;8.34;97.11
71344;BME280;59146;43.850;25.948;2023-03-23T04:25:33;101251.84;;;8.34;95.55
71344;BME280;59146;43.850;25.948;2023-03-23T04:27:59;101328.50;;;8.48;97.09
71344;BME280;59146;43.850;25.948;2023-03-23T04:30:27;101318.03;;;8.50;97.92
71344;BME280;59146;43.850;25.948;2023-03-23T04:32:53;101183.22;;;7.70;97.18
71344;BME280;59146;43.850;25.948;2023-03-23T04:35:23;101315.84;;;8.61;96.58
71344;BME280;59146;43.850;25.948;2023-03-23T04:37:54;101298.84;;;8.52;96.29
71344;BME280;59146;43.850;25.948;2023-03-23T04:40:19;101338.03;;;8.71;96.12
71344;BME280;59146;43.850;25.948;2023-03-23T04:42:45;101330.03;;;8.54;97.29
71344;BME280;59146;43.850;25.948;2023-03-23T04:45:14;101308.09;;;8.59;97.98
71344;BME280;59146;43.850;25.948;2023-03-23T04:47:41;101334.44;;;8.95;96.46
71344;BME280;59146;43.850;25.948;2023-03-23T04:50:08;101283.88;;;8.57;96.11
71344;BME280;59146;43.850;25.948;2023-03-23T04:52:35;101187.97;;;8.03;95.26
71344;BME280;59146;43.850;25.948;2023-03-23T04:55:06;101326.50;;;8.98;95.73
71344;BME280;59146;43.850;25.948;2023-03-23T04:57:33;101337.81;;;8.97;95.55
71344;BME280;59146;43.850;25.948;2023-03-23T04:59:59;101266.44;;;8.59;94.39
71344;BME280;59146;43.850;25.948;2023-03-23T05:02:25;101298.28;;;8.88;94.71
71344;BME280;59146;43.850;25.948;2023-03-23T05:04:55;101331.06;;;9.13;94.61
71344;BME280;59146;43.850;25.948;2023-03-23T05:07:21;101332.44;;;9.22;94.73
71344;BME280;59146;43.850;25.948;2023-03-23T05:09:47;101310.94;;;9.17;93.63
71344;BME280;59146;43.850;25.948;2023-03-23T05:12:13;101349.19;;;9.16;93.55
71344;BME280;59146;43.850;25.948;2023-03-23T05:14:41;101349.28;;;8.93;95.07
71344;BME280;59146;43.850;25.948;2023-03-23T05:17:07;101343.03;;;8.97;95.99
71344;BME280;59146;43.850;25.948;2023-03-23T05:19:32;101353.97;;;9.27;95.30
71344;BME280;59146;43.850;25.948;2023-03-23T05:21:58;101305.22;;;9.09;93.43
71344;BME280;59146;43.850;25.948;2023-03-23T05:24:30;101364.00;;;9.36;92.59
71344;BME280;59146;43.850;25.948;2023-03-23T05:26:59;101295.97;;;8.80;93.83
71344;BME280;59146;43.850;25.948;2023-03-23T05:29:25;101280.13;;;8.64;94.35
71344;BME280;59146;43.850;25.948;2023-03-23T05:31:51;101357.88;;;9.17;94.42
71344;BME280;59146;43.850;25.948;2023-03-23T05:34:18;101283.38;;;8.69;94.31
71344;BME280;59146;43.850;25.948;2023-03-23T05:36:44;101344.66;;;9.00;94.57
71344;BME280;59146;43.850;25.948;2023-03-23T05:39:11;101222.09;;;8.18;94.75
71344;BME280;59146;43.850;25.948;2023-03-23T05:41:39;101357.53;;;9.04;95.93
71344;BME280;59146;43.850;25.948;2023-03-23T05:44:04;101285.94;;;8.71;95.67
71344;BME280;59146;43.850;25.948;2023-03-23T05:46:30;101351.28;;;9.28;95.21
71344;BME280;59146;43.850;25.948;2023-03-23T05:48:56;101289.53;;;8.89;93.44
71344;BME280;59146;43.850;25.948;2023-03-23T05:51:21;101312.19;;;8.87;94.30
71344;BME280;59146;43.850;25.948;2023-03-23T05:53:46;101348.84;;;9.24;95.61
71344;BME280;59146;43.850;25.948;2023-03-23T05:56:13;101341.81;;;9.26;94.87
71344;BME280;59146;43.850;25.948;2023-03-23T05:58:39;101366.63;;;9.36;95.04
71344;BME280;59146;43.850;25.948;2023-03-23T06:01:08;101338.75;;;9.16;93.60
71344;BME280;59146;43.850;25.948;2023-03-23T06:03:34;101305.06;;;9.12;92.77
71344;BME280;59146;43.850;25.948;2023-03-23T06:06:02;101310.38;;;8.89;93.79
71344;BME280;59146;43.850;25.948;2023-03-23T06:08:28;101315.81;;;9.04;93.46
71344;BME280;59146;43.850;25.948;2023-03-23T06:10:54;101329.44;;;9.31;93.62
71344;BME280;59146;43.850;25.948;2023-03-23T06:13:20;101346.66;;;9.35;93.80
71344;BME280;59146;43.850;25.948;2023-03-23T06:15:46;101360.47;;;9.37;94.45
71344;BME280;59146;43.850;25.948;2023-03-23T06:18:12;101386.75;;;9.73;92.68
71344;BME280;59146;43.850;25.948;2023-03-23T06:20:38;101390.22;;;9.73;92.80
71344;BME280;59146;43.850;25.948;2023-03-23T06:23:04;101348.09;;;9.62;91.84
71344;BME280;59146;43.850;25.948;2023-03-23T06:25:30;101390.28;;;9.51;92.31
71344;BME280;59146;43.850;25.948;2023-03-23T06:27:56;101312.81;;;8.93;93.54
71344;BME280;59146;43.850;25.948;2023-03-23T06:30:22;101371.16;;;9.31;93.63
71344;BME280;59146;43.850;25.948;2023-03-23T06:32:48;101331.53;;;9.23;92.64
71344;BME280;59146;43.850;25.948;2023-03-23T06:35:14;101320.41;;;9.19;91.95
71344;BME280;59146;43.850;25.948;2023-03-23T06:37:40;101361.06;;;9.43;91.81
71344;BME280;59146;43.850;25.948;2023-03-23T06:40:06;101367.25;;;9.41;91.73
71344;BME280;59146;43.850;25.948;2023-03-23T06:42:33;101399.84;;;9.51;92.78
71344;BME280;59146;43.850;25.948;2023-03-23T06:44:58;101316.41;;;9.11;92.87
71344;BME280;59146;43.850;25.948;2023-03-23T06:47:28;101392.31;;;9.85;91.51
71344;BME280;59146;43.850;25.948;2023-03-23T06:49:55;101402.22;;;9.77;90.65
71344;BME280;59146;43.850;25.948;2023-03-23T06:52:22;101385.47;;;9.42;92.20
71344;BME280;59146;43.850;25.948;2023-03-23T06:54:49;101356.22;;;9.34;92.56
71344;BME280;59146;43.850;25.948;2023-03-23T06:57:14;101352.13;;;9.49;92.01
71344;BME280;59146;43.850;25.948;2023-03-23T06:59:39;101415.41;;;9.94;91.23
71344;BME280;59146;43.850;25.948;2023-03-23T07:02:08;101408.03;;;9.84;91.03
71344;BME280;59146;43.850;25.948;2023-03-23T07:04:34;101397.88;;;9.78;90.98
71344;BME280;59146;43.850;25.948;2023-03-23T07:07:00;101348.16;;;9.60;90.48
71344;BME280;59146;43.850;25.948;2023-03-23T07:09:26;101404.69;;;10.00;90.70
71344;BME280;59146;43.850;25.948;2023-03-23T07:11:52;101430.16;;;10.15;89.50
71344;BME280;59146;43.850;25.948;2023-03-23T07:14:18;101359.19;;;9.67;89.82
71344;BME280;59146;43.850;25.948;2023-03-23T07:16:43;101414.63;;;9.92;89.61
71344;BME280;59146;43.850;25.948;2023-03-23T07:19:09;101380.31;;;9.81;90.67
71344;BME280;59146;43.850;25.948;2023-03-23T07:21:34;101333.97;;;9.68;89.45
71344;BME280;59146;43.850;25.948;2023-03-23T07:24:00;101423.38;;;10.11;89.50
71344;BME280;59146;43.850;25.948;2023-03-23T07:26:25;101354.44;;;9.56;89.86
71344;BME280;59146;43.850;25.948;2023-03-23T07:28:50;101348.47;;;9.53;90.74
71344;BME280;59146;43.850;25.948;2023-03-23T07:31:16;101370.13;;;9.75;91.36
71344;BME280;59146;43.850;25.948;2023-03-23T07:33:42;101374.22;;;9.81;90.73
71344;BME280;59146;43.850;25.948;2023-03-23T07:36:09;101436.00;;;10.00;90.96
71344;BME280;59146;43.850;25.948;2023-03-23T07:38:34;101395.66;;;9.48;92.00
71344;BME280;59146;43.850;25.948;2023-03-23T07:41:01;101390.34;;;9.70;91.78
71344;BME280;59146;43.850;25.948;2023-03-23T07:43:27;101378.63;;;9.60;91.72
71344;BME280;59146;43.850;25.948;2023-03-23T07:45:52;101429.88;;;9.81;91.34
71344;BME280;59146;43.850;25.948;2023-03-23T07:48:18;101403.72;;;9.42;92.72
71344;BME280;59146;43.850;25.948;2023-03-23T07:50:43;101418.22;;;9.70;93.58
71344;BME280;59146;43.850;25.948;2023-03-23T07:53:09;101418.00;;;9.74;92.36
71344;BME280;59146;43.850;25.948;2023-03-23T07:55:34;101457.00;;;9.97;92.30
71344;BME280;59146;43.850;25.948;2023-03-23T07:58:00;101358.53;;;9.42;91.61
71344;BME280;59146;43.850;25.948;2023-03-23T08:00:26;101462.09;;;10.00;91.36
71344;BME280;59146;43.850;25.948;2023-03-23T08:02:53;101376.28;;;9.54;92.09
71344;BME280;59146;43.850;25.948;2023-03-23T08:05:23;101459.03;;;9.91;92.27
71344;BME280;59146;43.850;25.948;2023-03-23T08:07:51;101444.88;;;9.56;93.65
71344;BME280;59146;43.850;25.948;2023-03-23T08:10:19;101403.41;;;9.28;94.15
71344;BME280;59146;43.850;25.948;2023-03-23T08:12:51;101412.88;;;9.31;94.41
71344;BME280;59146;43.850;25.948;2023-03-23T08:15:17;101446.81;;;9.51;93.70
71344;BME280;59146;43.850;25.948;2023-03-23T08:17:43;101426.19;;;9.45;94.43
71344;BME280;59146;43.850;25.948;2023-03-23T08:20:11;101403.03;;;9.59;93.28
71344;BME280;59146;43.850;25.948;2023-03-23T08:22:39;101460.00;;;10.28;92.03
71344;BME280;59146;43.850;25.948;2023-03-23T08:25:07;101448.56;;;10.12;90.32
71344;BME280;59146;43.850;25.948;2023-03-23T08:27:33;101467.66;;;10.52;90.39
71344;BME280;59146;43.850;25.948;2023-03-23T08:29:59;101417.81;;;10.37;90.04
71344;BME280;59146;43.850;25.948;2023-03-23T08:32:25;101470.16;;;10.92;88.64
71344;BME280;59146;43.850;25.948;2023-03-23T08:34:51;101462.97;;;10.97;86.66
71344;BME280;59146;43.850;25.948;2023-03-23T08:37:17;101456.03;;;10.59;88.69
71344;BME280;59146;43.850;25.948;2023-03-23T08:39:43;101395.28;;;10.16;88.81
71344;BME280;59146;43.850;25.948;2023-03-23T08:42:09;101483.03;;;10.78;88.21
71344;BME280;59146;43.850;25.948;2023-03-23T08:44:35;101401.78;;;10.26;87.47
71344;BME280;59146;43.850;25.948;2023-03-23T08:47:02;101440.22;;;10.62;87.24
71344;BME280;59146;43.850;25.948;2023-03-23T08:49:30;101445.00;;;10.71;87.41
71344;BME280;59146;43.850;25.948;2023-03-23T08:51:57;101428.28;;;10.56;87.91
71344;BME280;59146;43.850;25.948;2023-03-23T08:54:24;101459.34;;;11.18;86.98
71344;BME280;59146;43.850;25.948;2023-03-23T08:56:49;101396.38;;;11.04;83.93
71344;BME280;59146;43.850;25.948;2023-03-23T08:59:14;101394.25;;;11.29;83.94
71344;BME280;59146;43.850;25.948;2023-03-23T09:01:40;101415.19;;;11.46;82.04
71344;BME280;59146;43.850;25.948;2023-03-23T09:04:06;101450.72;;;11.86;82.52
71344;BME280;59146;43.850;25.948;2023-03-23T09:06:31;101438.50;;;12.19;80.85
71344;BME280;59146;43.850;25.948;2023-03-23T09:08:59;101400.44;;;11.79;80.69
71344;BME280;59146;43.850;25.948;2023-03-23T09:11:26;101423.06;;;12.15;79.28
71344;BME280;59146;43.850;25.948;2023-03-23T09:13:51;101428.09;;;12.02;80.11
71344;BME280;59146;43.850;25.948;2023-03-23T09:16:17;101418.06;;;12.26;79.66
71344;BME280;59146;43.850;25.948;2023-03-23T09:18:42;101411.03;;;12.43;78.79
71344;BME280;59146;43.850;25.948;2023-03-23T09:21:08;101453.50;;;12.81;78.96
71344;BME280;59146;43.850;25.948;2023-03-23T09:23:34;101385.81;;;12.41;76.55
71344;BME280;59146;43.850;25.948;2023-03-23T09:26:01;101387.69;;;12.86;76.57
71344;BME280;59146;43.850;25.948;2023-03-23T09:28:27;101387.19;;;13.10;74.29
71344;BME280;59146;43.850;25.948;2023-03-23T09:30:55;101395.22;;;13.07;73.54
71344;BME280;59146;43.850;25.948;2023-03-23T09:33:22;101461.28;;;13.75;73.39
71344;BME280;59146;43.850;25.948;2023-03-23T09:35:48;101403.25;;;13.20;71.52
71344;BME280;59146;43.850;25.948;2023-03-23T09:38:13;101397.00;;;12.91;72.16
71344;BME280;59146;43.850;25.948;2023-03-23T09:46:35;101398.34;;;13.59;70.91
71344;BME280;59146;43.850;25.948;2023-03-23T09:49:28;101440.00;;;13.79;71.54
71344;BME280;59146;43.850;25.948;2023-03-23T09:52:00;101361.59;;;13.29;72.52
71344;BME280;59146;43.850;25.948;2023-03-23T09:54:29;101385.34;;;13.86;70.89
71344;BME280;59146;43.850;25.948;2023-03-23T09:56:58;101412.84;;;14.22;70.43
71344;BME280;59146;43.850;25.948;2023-03-23T09:59:41;101438.19;;;14.09;70.63
71344;BME280;59146;43.850;25.948;2023-03-23T10:02:15;101411.50;;;14.01;71.96
71344;BME280;59146;43.850;25.948;2023-03-23T10:04:50;101431.75;;;14.43;69.91
71344;BME280;59146;43.850;25.948;2023-03-23T10:07:19;101370.16;;;14.05;68.79
71344;BME280;59146;43.850;25.948;2023-03-23T10:09:48;101347.63;;;14.29;68.73
71344;BME280;59146;43.850;25.948;2023-03-23T10:15:38;101421.50;;;14.93;67.70
71344;BME280;59146;43.850;25.948;2023-03-23T10:18:04;101419.63;;;15.22;65.98
71344;BME280;59146;43.850;25.948;2023-03-23T10:20:43;101365.91;;;14.85;65.42
71344;BME280;59146;43.850;25.948;2023-03-23T10:26:21;101376.59;;;15.36;65.40
71344;BME280;59146;43.850;25.948;2023-03-23T10:28:47;101412.19;;;15.68;63.94
71344;BME280;59146;43.850;25.948;2023-03-23T10:31:20;101345.72;;;14.86;65.60
71344;BME280;59146;43.850;25.948;2023-03-23T10:33:49;101391.81;;;15.45;64.91
71344;BME280;59146;43.850;25.948;2023-03-23T10:36:21;101370.03;;;15.43;64.68
71344;BME280;59146;43.850;25.948;2023-03-23T10:39:00;101404.91;;;15.59;63.66
71344;BME280;59146;43.850;25.948;2023-03-23T10:41:29;101357.94;;;15.13;64.03
71344;BME280;59146;43.850;25.948;2023-03-23T10:43:55;101358.66;;;15.16;64.36
71344;BME280;59146;43.850;25.948;2023-03-23T10:49:01;101394.41;;;15.84;63.02
71344;BME280;59146;43.850;25.948;2023-03-23T10:51:34;101342.13;;;15.53;63.00
71344;BME280;59146;43.850;25.948;2023-03-23T10:54:02;101392.50;;;15.73;64.18
71344;BME280;59146;43.850;25.948;2023-03-23T10:59:18;101384.50;;;16.00;62.24
71344;BME280;59146;43.850;25.948;2023-03-23T11:01:48;101362.78;;;15.97;61.93
71344;BME280;59146;43.850;25.948;2023-03-23T11:04:17;101333.94;;;15.70;61.62
71344;BME280;59146;43.850;25.948;2023-03-23T11:06:46;101325.06;;;15.71;61.13
71344;BME280;59146;43.850;25.948;2023-03-23T11:09:17;101368.91;;;15.97;61.21
71344;BME280;59146;43.850;25.948;2023-03-23T11:11:52;101318.50;;;15.39;62.17
71344;BME280;59146;43.850;25.948;2023-03-23T11:16:56;101361.94;;;15.96;62.68
71344;BME280;59146;43.850;25.948;2023-03-23T11:19:28;101353.31;;;16.55;61.14
71344;BME280;59146;43.850;25.948;2023-03-23T11:22:19;101323.03;;;16.61;60.35
71344;BME280;59146;43.850;25.948;2023-03-23T11:24:45;101344.28;;;16.34;60.83
71344;BME280;59146;43.850;25.948;2023-03-23T11:27:11;101338.72;;;16.26;61.26
71344;BME280;59146;43.850;25.948;2023-03-23T11:32:15;101285.84;;;16.04;60.37
71344;BME280;59146;43.850;25.948;2023-03-23T11:34:45;101343.72;;;15.93;61.76
71344;BME280;59146;43.850;25.948;2023-03-23T11:39:59;101316.03;;;15.75;62.79
71344;BME280;59146;43.850;25.948;2023-03-23T11:42:36;101321.47;;;16.10;61.06
71344;BME280;59146;43.850;25.948;2023-03-23T11:47:54;101333.38;;;15.65;63.10
71344;BME280;59146;43.850;25.948;2023-03-23T11:50:24;101286.94;;;15.51;62.89
71344;BME280;59146;43.850;25.948;2023-03-23T11:53:55;101334.50;;;16.24;60.93
71344;BME280;59146;43.850;25.948;2023-03-23T11:58:38;101327.63;;;16.21;58.23
71344;BME280;59146;43.850;25.948;2023-03-23T12:01:09;101307.97;;;16.14;60.06
71344;BME280;59146;43.850;25.948;2023-03-23T12:03:59;101260.88;;;16.33;57.36
71344;BME280;59146;43.850;25.948;2023-03-23T12:06:36;101293.91;;;16.62;57.08
71344;BME280;59146;43.850;25.948;2023-03-23T12:26:50;101322.50;;;16.92;53.24
71344;BME280;59146;43.850;25.948;2023-03-23T12:31:40;101308.84;;;17.09;54.27
71344;BME280;59146;43.850;25.948;2023-03-23T12:34:26;101307.41;;;17.40;52.45
71344;BME280;59146;43.850;25.948;2023-03-23T12:40:06;101302.69;;;17.78;50.61
71344;BME280;59146;43.850;25.948;2023-03-23T12:42:43;101299.56;;;17.38;52.64
71344;BME280;59146;43.850;25.948;2023-03-23T12:47:42;101296.59;;;17.43;52.27
71344;BME280;59146;43.850;25.948;2023-03-23T12:50:30;101294.16;;;17.29;53.19
71344;BME280;59146;43.850;25.948;2023-03-23T12:53:06;101297.44;;;16.74;54.17
71344;BME280;59146;43.850;25.948;2023-03-23T12:58:13;101293.00;;;16.75;55.30
71344;BME280;59146;43.850;25.948;2023-03-23T13:01:07;101222.56;;;16.17;55.52
71344;BME280;59146;43.850;25.948;2023-03-23T13:03:48;101243.38;;;15.83;56.11
71344;BME280;59146;43.850;25.948;2023-03-23T13:11:43;101273.28;;;16.56;54.06
71344;BME280;59146;43.850;25.948;2023-03-23T13:22:23;101222.84;;;17.07;51.09
71344;BME280;59146;43.850;25.948;2023-03-23T13:24:53;101280.53;;;17.46;51.63
71344;BME280;59146;43.850;25.948;2023-03-23T13:27:28;101226.63;;;16.92;50.90
71344;BME280;59146;43.850;25.948;2023-03-23T13:29:55;101271.97;;;17.31;51.52
71344;BME280;59146;43.850;25.948;2023-03-23T13:32:34;101209.91;;;17.15;49.88
71344;BME280;59146;43.850;25.948;2023-03-23T13:35:02;101222.38;;;17.13;50.30
71344;BME280;59146;43.850;25.948;2023-03-23T13:37:29;101253.34;;;17.22;50.13
71344;BME280;59146;43.850;25.948;2023-03-23T13:40:19;101271.03;;;17.43;49.67
71344;BME280;59146;43.850;25.948;2023-03-23T13:42:52;101210.53;;;17.40;49.18
71344;BME280;59146;43.850;25.948;2023-03-23T13:45:45;101218.72;;;17.60;48.99
71344;BME280;59146;43.850;25.948;2023-03-23T13:53:22;101238.66;;;17.64;48.43
71344;BME280;59146;43.850;25.948;2023-03-23T13:55:51;101104.28;;;16.82;49.20
71344;BME280;59146;43.850;25.948;2023-03-23T13:58:25;101176.88;;;17.09;50.14
71344;BME280;59146;43.850;25.948;2023-03-23T14:01:31;101247.22;;;17.32;49.15
71344;BME280;59146;43.850;25.948;2023-03-23T14:03:59;101195.78;;;17.38;49.94
71344;BME280;59146;43.850;25.948;2023-03-23T14:06:26;101158.19;;;17.23;49.72
71344;BME280;59146;43.850;25.948;2023-03-23T14:09:09;101221.13;;;17.63;49.04
71344;BME280;59146;43.850;25.948;2023-03-23T14:11:50;101238.88;;;17.50;49.86
71344;BME280;59146;43.850;25.948;2023-03-23T14:14:28;101189.41;;;17.29;49.42
71344;BME280;59146;43.850;25.948;2023-03-23T14:17:07;101237.34;;;17.69;49.87
71344;BME280;59146;43.850;25.948;2023-03-23T14:19:32;101228.84;;;17.66;49.99
71344;BME280;59146;43.850;25.948;2023-03-23T14:22:00;101184.69;;;17.22;50.67
71344;BME280;59146;43.850;25.948;2023-03-23T14:24:38;101223.41;;;17.56;50.38
71344;BME280;59146;43.850;25.948;2023-03-23T14:29:33;101202.69;;;17.06;50.59
71344;BME280;59146;43.850;25.948;2023-03-23T14:31:59;101179.06;;;16.69;51.96
71344;BME280;59146;43.850;25.948;2023-03-23T14:34:28;101198.97;;;16.62;52.12